Date,TemperatureHighF,TemperatureAvgF,TemperatureLowF,DewpointHighF,DewpointAvgF,DewpointLowF,HumidityHigh,HumidityAvg,HumidityLow,PressureMaxIn,PressureMinIn,WindSpeedMaxMPH,WindSpeedAvgMPH,GustSpeedMaxMPH,PrecipitationSumIn
2012-8-4,91,81,73,72,71,70,93,74,51,30.06,29.96,4,1,9,0.02
2012-8-5,94,77,69,76,71,69,100,85,49,30.18,30.04,6,1,11,0.14
2012-8-6,85,74,70,76,72,10,100,93,67,30.14,30.01,4,0,8,0.45
2012-8-7,92,77,70,75,72,68,100,86,47,30.03,29.94,5,1,8,0.01
2012-8-8,93,79,71,77,72,65,100,83,41,30.04,29.94,4,1,6,0.00
2012-8-9,90,74,68,75,70,66,100,88,56,29.99,29.83,20,2,30,0.35
2012-8-10,84,73,67,73,70,66,100,89,66,29.85,29.78,7,2,12,0.04
2012-8-11,85,74,63,70,63,50,100,73,32,30.00,29.85,6,2,10,0.00
2012-8-12,87,71,58,65,60,54,100,74,35,30.05,29.97,5,1,8,0.00
2012-8-13,87,72,60,66,63,58,96,75,42,30.04,29.92,6,2,10,0.00
2012-8-14,85,74,67,70,67,65,96,82,59,29.97,29.87,7,2,12,0.01
2012-8-15,85,72,66,72,66,60,100,84,46,30.02,29.90,6,1,11,0.15
2012-8-16,90,73,62,68,63,53,100,74,30,30.07,29.91,6,2,8,0.01
2012-8-17,81,71,62,70,66,61,100,85,60,30.00,29.88,5,1,7,0.06
2012-8-18,87,74,66,70,65,54,100,76,34,29.95,29.83,4,1,6,0.02
2012-8-19,84,71,64,66,64,59,100,81,43,29.90,29.82,8,1,10,0.08
2012-8-20,84,72,61,68,62,48,100,74,29,29.99,29.86,7,2,10,0.00
2012-8-21,86,70,56,63,57,45,100,69,25,30.07,29.98,6,2,10,0.00
2012-8-22,90,72,56,63,57,43,100,68,21,30.12,30.03,5,1,8,0.00
2012-8-23,90,74,60,66,61,53,97,70,29,30.14,30.04,5,2,8,0.00
2012-8-24,93,75,62,68,63,58,100,71,31,30.14,30.03,10,2,13,0.00
2012-8-25,91,75,64,68,64,60,94,73,37,30.15,30.04,5,2,9,0.00
2012-8-26,92,76,61,69,64,57,97,72,32,30.17,30.04,5,1,10,0.00
2012-8-27,94,77,63,68,64,58,93,69,32,30.14,29.97,6,2,8,0.00
2012-8-28,95,77,64,71,67,60,100,75,33,30.03,29.90,9,2,14,0.00
2012-8-29,93,79,67,73,66,56,100,70,32,30.01,29.92,7,2,10,0.00
2012-8-30,95,78,64,70,67,62,96,72,38,30.13,29.98,5,2,8,0.00
2012-8-31,95,80,68,75,70,67,100,77,42,30.22,30.09,6,1,10,0.00
2012-9-1,95,80,70,76,72,69,100,78,45,30.17,30.01,6,1,9,0.00
2012-9-2,93,78,70,76,71,68,97,82,47,30.06,29.88,9,2,14,0.21
2012-9-3,86,75,70,76,72,69,100,92,68,29.97,29.88,5,2,7,0.36
2012-9-4,89,76,69,77,73,69,100,89,59,29.93,29.85,6,1,9,0.11
2012-9-5,91,78,72,78,74,72,100,88,58,29.93,29.82,5,1,8,0.44
2012-9-6,89,77,69,75,71,67,100,83,51,29.98,29.86,6,2,9,0.01
2012-9-7,93,77,67,75,69,63,100,82,38,29.99,29.80,5,2,8,0.00
2012-9-8,81,69,56,74,67,56,100,93,68,29.94,29.75,7,1,11,0.37
2012-9-9,80,64,55,63,57,53,100,81,40,30.01,29.91,5,1,8,0.01
2012-9-10,62,62,62,59,59,59,90,90,90,30.01,30.01,0,0,0,0.01
2012-9-11,62,62,62,59,59,59,90,90,90,30.01,30.01,0,0,0,0.01
2012-9-12,87,72,62,63,60,55,90,70,35,30.01,29.81,5,1,8,0.01
2012-9-13,85,69,59,63,59,53,96,74,36,29.95,29.80,5,2,10,0.00
2012-9-14,86,70,60,66,61,57,95,76,39,29.87,29.76,6,1,8,0.00
2012-9-15,86,70,59,67,62,59,100,79,44,29.84,29.71,6,1,10,0.00
2012-9-16,81,70,63,68,64,61,96,82,52,29.73,29.62,4,1,6,0.00
2012-9-17,73,68,65,68,66,63,100,93,81,29.66,29.39,4,1,6,0.76
2012-9-18,71,66,59,69,65,54,100,96,85,29.56,29.26,4,2,10,1.49
2012-9-19,77,62,50,58,52,44,100,76,33,29.73,29.56,6,2,9,0.00
2012-9-20,81,65,51,64,56,50,97,77,40,29.73,29.61,6,1,11,0.00
2012-9-21,83,67,55,65,59,55,100,80,41,29.69,29.53,6,1,10,0.01
2012-9-22,82,67,54,66,58,49,100,76,37,29.67,29.51,10,2,17,0.00
2012-9-23,74,57,46,54,43,22,100,67,14,29.80,29.67,7,2,11,0.01
2012-9-24,75,55,40,50,42,31,96,69,22,29.87,29.71,6,1,8,0.00
2012-9-25,73,58,44,55,50,42,96,78,49,29.82,29.70,5,1,7,0.00
2012-9-26,85,65,52,65,58,51,100,80,42,29.82,29.72,6,1,11,0.00
2012-9-27,86,68,55,67,62,55,100,82,45,29.82,29.69,6,1,9,0.00
2012-9-28,77,67,60,70,64,60,100,91,68,29.73,27.41,4,1,8,0.12
2012-9-29,76,65,57,70,64,57,100,96,73,29.63,29.51,6,0,8,0.44
2012-9-30,73,60,52,61,55,51,100,87,50,29.56,29.44,4,1,5,0.01
2012-10-1,67,62,57,64,60,56,100,95,87,29.47,29.30,7,2,11,0.37
2012-10-2,89,71,63,73,66,62,100,85,46,29.55,29.31,8,3,14,0.37
2012-10-3,78,68,62,67,63,61,100,86,58,29.78,29.55,4,1,6,0.00
2012-10-4,80,67,57,64,59,53,100,80,41,29.88,29.77,6,1,8,0.00
2012-10-5,82,64,52,61,56,51,100,79,35,29.83,29.60,6,1,10,0.00
2012-10-6,65,58,54,62,54,44,100,85,66,29.67,29.56,6,2,10,0.00
2012-10-7,56,51,46,50,47,44,95,86,69,29.76,29.57,4,1,7,0.00
2012-10-8,51,48,44,49,46,43,97,93,88,29.80,29.71,3,1,6,0.00
2012-10-9,59,52,44,51,48,43,97,87,65,29.76,29.64,4,1,7,0.00
2012-10-10,62,52,44,54,49,43,100,90,73,29.79,29.63,11,2,13,0.32
2012-10-11,70,52,36,48,42,30,100,74,24,29.88,29.77,7,2,12,0.01
2012-10-12,71,55,45,51,46,42,93,76,40,29.91,29.80,4,1,6,0.00
2012-10-13,79,59,44,54,48,42,96,71,37,29.95,29.78,6,2,11,0.00
2012-10-14,78,63,49,60,54,46,92,72,47,29.81,29.52,6,2,9,0.00
2012-10-15,71,62,47,62,52,40,100,74,36,29.54,29.45,13,4,19,0.48
2012-10-16,72,54,41,51,44,38,97,74,29,29.62,29.46,6,1,10,0.00
2012-10-17,80,59,43,51,46,36,96,67,23,29.57,29.36,7,2,11,0.00
2012-10-18,78,62,50,58,51,45,89,68,45,29.41,29.28,13,3,21,0.05
2012-10-19,70,57,42,55,40,20,100,62,16,29.40,29.26,17,3,24,0.01
2012-10-20,60,55,48,45,41,38,85,62,49,29.59,29.36,9,2,14,0.00
2012-10-21,72,54,40,49,44,39,96,73,35,29.77,29.59,5,1,8,0.00
2012-10-22,83,58,42,53,48,42,100,74,28,29.84,29.71,5,1,8,0.00
2012-10-23,80,60,46,58,52,45,100,77,40,29.79,29.67,5,1,8,0.00
2012-10-24,86,63,47,59,51,42,100,72,22,29.95,29.71,5,1,7,0.00
2012-10-25,88,64,47,56,49,40,95,66,20,29.87,29.74,8,2,12,0.00
2012-10-26,86,64,50,60,52,47,94,71,27,29.83,29.66,6,1,8,0.00
2012-10-27,69,57,51,58,51,44,93,80,66,29.68,29.61,7,3,11,0.01
2012-10-28,52,48,41,45,42,37,94,82,74,29.67,29.56,8,3,12,0.37
2012-10-29,44,41,37,38,37,33,91,85,78,29.63,29.39,10,5,17,0.02
2012-10-30,41,38,37,38,36,33,95,92,85,29.45,29.26,13,8,19,0.19
2012-10-31,51,44,39,39,36,31,94,75,53,29.55,29.44,10,5,17,0.01
2012-11-1,58,48,43,36,28,12,70,50,18,29.65,29.54,13,5,18,0.00
2012-11-2,63,49,37,38,32,21,83,56,21,29.75,29.59,11,3,16,0.00
2012-11-3,64,46,31,41,34,25,93,66,25,29.86,29.69,5,1,7,0.00
2012-11-4,60,50,39,46,41,35,90,72,57,29.79,29.68,6,2,9,0.00
2012-11-5,60,42,30,41,32,25,96,71,27,29.84,29.72,5,1,10,0.00
2012-11-6,48,41,33,40,36,30,88,80,69,29.76,29.63,4,1,7,0.00
2012-11-7,52,43,40,46,40,38,96,89,75,29.75,29.59,4,2,6,0.08
2012-11-8,60,41,32,46,35,30,100,82,34,29.93,29.75,5,1,11,0.00
2012-11-9,68,43,28,43,33,27,95,73,29,30.03,29.91,6,1,8,0.01
2012-11-10,75,48,31,43,36,30,94,69,21,30.09,29.95,5,1,8,0.00
2012-11-11,79,54,32,48,38,22,95,63,13,30.11,29.95,7,2,14,0.05
2012-11-12,71,59,45,57,50,42,96,76,50,30.07,29.80,9,3,14,0.50
2012-11-13,54,41,31,42,31,24,92,70,31,30.15,30.06,6,2,11,0.00
2012-11-14,56,40,27,36,30,25,93,72,37,30.12,29.97,6,1,8,0.01
2012-11-15,62,43,32,36,32,28,89,69,31,30.03,29.92,6,1,8,0.00
2012-11-16,62,42,28,39,30,22,95,67,22,30.09,29.97,5,1,7,0.00
2012-11-17,68,45,30,38,28,13,91,58,12,30.18,30.06,4,1,8,0.00
2012-11-18,67,46,32,40,34,25,83,64,35,30.18,30.04,8,2,13,0.00
2012-11-19,68,47,34,46,39,32,93,75,40,30.07,29.90,5,1,7,0.00
2012-11-20,68,47,37,48,38,33,95,75,30,29.91,29.77,6,1,8,0.00
2012-11-21,71,49,35,43,37,31,91,68,24,29.92,29.82,6,1,8,0.00
2012-11-22,71,46,32,42,35,29,94,70,24,29.98,29.85,6,1,8,0.00
2012-11-23,56,43,32,47,36,29,94,78,53,29.88,29.69,9,2,15,0.00
2012-11-24,46,38,25,30,22,17,78,55,32,29.87,29.77,9,4,119,0.00
2012-11-25,53,34,21,30,20,9,88,63,17,29.89,29.72,8,2,11,0.00
2012-11-26,60,41,25,40,28,20,86,64,27,29.94,29.81,4,1,7,0.02
2012-11-27,47,44,39,44,40,33,96,87,76,29.98,29.82,6,2,8,0.07
2012-11-28,53,40,28,34,30,24,87,69,38,30.11,29.96,6,2,11,0.01
2012-11-29,58,37,24,35,27,22,91,71,29,30.14,30.01,6,2,9,0.00
2012-11-30,59,40,26,40,32,24,92,76,42,30.09,29.96,10,2,16,0.00
2012-12-1,68,46,34,46,39,33,95,78,42,30.09,29.97,5,1,8,0.00
2012-12-2,68,49,34,50,42,33,97,81,46,30.04,29.91,11,2,15,0.00
2012-12-3,73,57,48,55,49,45,95,77,43,30.02,29.90,8,1,12,0.00
2012-12-4,69,54,41,54,48,40,100,82,52,29.99,29.85,8,1,11,0.00
2012-12-5,64,51,34,55,42,30,100,74,32,29.99,29.84,7,2,11,0.11
2012-12-6,53,44,34,45,38,30,91,80,54,29.92,29.81,5,2,7,0.02
2012-12-7,68,51,41,51,46,40,97,83,54,29.81,27.52,4,1,6,0.01
2012-12-8,70,55,47,56,50,46,97,86,59,29.74,29.65,6,1,9,0.00
2012-12-9,73,59,49,59,54,47,100,84,51,29.78,29.61,7,2,9,0.08
2012-12-10,59,54,43,59,54,41,100,97,91,29.61,29.38,8,2,12,0.94
2012-12-11,43,39,32,42,34,29,97,83,67,29.91,29.59,8,3,11,0.01
2012-12-12,45,36,31,34,30,28,93,82,59,30.02,29.90,6,2,9,0.00
2012-12-13,58,39,29,37,31,27,96,77,35,30.08,29.98,5,1,8,0.00
2012-12-14,60,38,27,41,32,25,96,80,38,30.10,29.92,4,1,6,0.00
2012-12-15,61,44,35,41,36,31,89,75,35,29.93,29.68,6,1,8,0.00
2012-12-16,54,49,45,54,48,41,100,97,85,29.74,29.53,8,2,15,0.32
2012-12-17,53,49,46,53,49,45,100,99,89,29.55,29.34,11,2,19,0.09
2012-12-18,53,45,32,48,39,30,100,80,50,29.66,29.39,14,4,19,0.02
2012-12-19,60,41,28,44,36,28,100,83,51,29.81,29.65,6,1,9,0.00
2012-12-20,57,46,36,50,41,30,100,84,63,29.77,29.26,29,8,36,0.56
2012-12-21,37,34,31,33,26,20,90,74,55,29.76,29.41,17,11,24,0.01
2012-12-22,42,32,24,23,20,18,86,62,41,29.98,29.76,16,5,19,0.00
2012-12-23,52,35,20,41,28,18,96,78,35,30.50,29.71,10,2,17,0.20
2012-12-24,47,44,41,47,44,41,100,99,96,29.72,29.53,5,1,8,0.32
2012-12-25,52,46,43,47,44,42,100,92,77,29.79,29.60,8,2,11,0.11
2012-12-26,52,44,34,46,40,29,96,88,67,29.61,29.16,20,8,28,0.58
2012-12-27,34,33,32,30,28,27,89,82,77,29.83,29.58,11,5,17,0.00
2012-12-28,42,37,32,35,31,27,85,78,69,29.98,29.67,9,3,14,0.00
2012-12-29,43,38,32,41,34,22,97,84,64,30.17,29.70,14,6,20,0.19
2012-12-30,40,31,25,24,21,18,86,68,49,30.45,30.17,13,4,18,0.00
2012-12-31,38,32,24,31,26,21,92,81,68,30.38,30.13,4,1,5,0.00
2013-1-1,43,40,36,43,38,30,100,93,79,30.13,29.95,10,1,14,0.41